Terminal Aerodrome Forecast
Issued by NWS Binghamton, NY

Home | Current Version | Previous Version | Text Only | Print | Product List | Glossary On
Versions: 1 2 3 4 5 6 7 8 9 10 11 12 13 14 15 16 17 18 19 20
000
FTUS41 KBGM 021408 AAA
TAFSYR
TAF AMD
KSYR 021408Z 0214/0312 VRB03KT P6SM SCT015
      TEMPO 0214/0216 BKN015
     FM021600 28008KT P6SM SCT040
     FM030900 VRB03KT P6SM BKN250=

USA.gov is the U.S. government's official web portal to all federal, state and local government web resources and services.